Time;durP1;ratioP1;P1;durP2;ratioP2;P2;SDS_P1;SDS_P2;PMS_P1;PMS_P2;Temp;Humidity;BMP_temperature;BMP_pressure;BME280_temperature;BME280_humidity;BME280_pressure;Samples;Min_cycle;Max_cycle;Signal;HPM_P1;HPM_P2
2022/07/15 00:00:41;;;;;;;5.20;2.33;;;17.60;96.50;;;;;;5040614;28;20276;-85
2022/07/15 00:03:06;;;;;;;5.85;2.67;;;17.60;96.60;;;;;;5040239;28;20025;-82
2022/07/15 00:05:35;;;;;;;4.22;2.15;;;17.60;96.60;;;;;;5040227;28;20036;-82
2022/07/15 00:08:01;;;;;;;7.15;2.40;;;17.60;96.60;;;;;;5040810;28;20033;-81
2022/07/15 00:10:28;;;;;;;5.97;2.42;;;17.50;96.70;;;;;;5040439;28;20110;-82
2022/07/15 00:12:57;;;;;;;5.63;2.63;;;17.50;96.70;;;;;;5042533;28;20017;-84
2022/07/15 00:15:28;;;;;;;3.97;2.00;;;17.50;96.80;;;;;;5047219;28;20033;-82
2022/07/15 00:17:55;;;;;;;6.03;2.63;;;17.40;97.00;;;;;;5056463;28;20056;-81
2022/07/15 00:20:22;;;;;;;4.88;2.95;;;17.40;97.00;;;;;;5032580;28;20021;-81
2022/07/15 00:22:48;;;;;;;3.97;2.40;;;17.30;97.10;;;;;;5043464;28;20100;-83
2022/07/15 00:25:14;;;;;;;5.03;1.95;;;17.30;97.10;;;;;;5041917;28;20021;-80
2022/07/15 00:27:52;;;;;;;4.85;1.92;;;17.30;97.10;;;;;;5040939;28;20534;-82
2022/07/15 00:30:18;;;;;;;4.20;1.98;;;17.30;97.00;;;;;;5021903;28;20345;-81
2022/07/15 00:32:43;;;;;;;5.97;2.33;;;17.30;97.20;;;;;;5022140;28;20332;-81
2022/07/15 00:35:09;;;;;;;4.80;2.20;;;17.20;97.30;;;;;;5039967;28;20032;-83
2022/07/15 00:37:35;;;;;;;3.97;2.00;;;17.20;97.30;;;;;;5021508;28;20396;-82
2022/07/15 00:40:01;;;;;;;6.18;2.10;;;16.70;97.30;;;;;;5039981;28;20380;-81
2022/07/15 00:42:45;;;;;;;4.63;2.03;;;17.10;97.50;;;;;;5039751;28;20341;-84
2022/07/15 00:45:18;;;;;;;5.47;2.55;;;17.10;97.40;;;;;;5039748;28;20025;-83
2022/07/15 00:47:49;;;;;;;4.57;2.40;;;17.00;97.60;;;;;;5039415;28;20107;-82
2022/07/15 00:50:17;;;;;;;3.05;1.80;;;16.90;97.60;;;;;;5039288;28;20013;-82
2022/07/15 00:53:10;;;;;;;4.88;2.25;;;16.90;97.80;;;;;;5039398;28;20029;-81
2022/07/15 00:55:45;;;;;;;5.10;2.20;;;16.90;97.60;;;;;;4976750;28;20399;-83
2022/07/15 00:58:23;;;;;;;2.67;1.70;;;16.90;97.90;;;;;;4976809;28;20746;-82
2022/07/15 01:00:50;;;;;;;6.53;2.45;;;16.80;97.90;;;;;;4976743;28;20161;-85
2022/07/15 01:03:17;;;;;;;4.38;2.15;;;16.80;98.10;;;;;;4976796;28;20553;-84
2022/07/15 01:05:45;;;;;;;5.60;2.42;;;16.80;98.10;;;;;;4977061;28;20027;-84
2022/07/15 01:08:11;;;;;;;5.03;2.50;;;16.70;98.10;;;;;;4976652;28;20038;-82
2022/07/15 01:10:38;;;;;;;7.70;3.35;;;16.70;98.30;;;;;;4976594;28;20571;-84
2022/07/15 01:13:04;;;;;;;7.15;2.53;;;16.70;98.20;;;;;;4976570;28;20097;-84
2022/07/15 01:15:32;;;;;;;5.25;2.30;;;16.70;98.70;;;;;;4976328;28;20571;-84
2022/07/15 01:17:59;;;;;;;7.60;2.60;;;16.70;98.50;;;;;;4976373;28;20046;-83
2022/07/15 01:20:25;;;;;;;4.15;2.05;;;16.60;98.40;;;;;;4976564;28;20313;-81
2022/07/15 01:22:51;;;;;;;9.60;2.88;;;16.60;98.40;;;;;;4976461;28;20485;-82
2022/07/15 01:25:17;;;;;;;5.70;2.47;;;16.60;98.50;;;;;;4960091;28;20271;-84
2022/07/15 01:27:42;;;;;;;5.13;2.22;;;16.50;98.70;;;;;;4960293;28;20259;-83
2022/07/15 01:30:09;;;;;;;4.38;2.45;;;16.50;98.60;;;;;;4976344;28;20030;-82
2022/07/15 01:32:35;;;;;;;5.47;2.45;;;16.50;98.60;;;;;;5006833;28;20037;-83
2022/07/15 01:35:01;;;;;;;8.85;2.75;;;16.50;98.80;;;;;;5020375;28;20087;-81
2022/07/15 01:37:26;;;;;;;6.35;2.60;;;16.50;99.10;;;;;;5020751;28;20313;-84
2022/07/15 01:39:52;;;;;;;5.60;2.70;;;16.40;98.90;;;;;;5038324;28;20245;-84
2022/07/15 01:42:19;;;;;;;3.70;2.20;;;16.30;99.20;;;;;;5020270;28;20519;-84
2022/07/15 01:44:44;;;;;;;5.18;2.38;;;16.20;99.30;;;;;;5038406;28;20032;-82
2022/07/15 01:47:10;;;;;;;5.32;2.65;;;16.10;99.50;;;;;;5038227;28;20021;-80
2022/07/15 01:49:36;;;;;;;7.47;3.10;;;16.20;99.50;;;;;;5038081;28;20051;-84
2022/07/15 01:52:03;;;;;;;6.13;3.05;;;17.90;99.90;;;;;;5038302;28;20025;-82
2022/07/15 01:54:31;;;;;;;7.65;2.75;;;16.10;99.60;;;;;;5037983;28;20017;-82
2022/07/15 01:56:57;;;;;;;6.07;2.83;;;16.00;99.60;;;;;;5037762;28;20336;-84
2022/07/15 01:59:24;;;;;;;7.65;2.65;;;16.00;99.90;;;;;;5038203;28;20060;-84
2022/07/15 02:01:52;;;;;;;6.63;2.42;;;15.90;99.90;;;;;;5038197;28;20107;-84
2022/07/15 02:04:18;;;;;;;7.38;3.20;;;15.90;99.90;;;;;;5020075;28;20021;-83
2022/07/15 02:06:45;;;;;;;6.03;2.70;;;16.00;99.90;;;;;;5037994;28;20024;-83
2022/07/15 02:09:12;;;;;;;5.53;2.80;;;15.90;99.90;;;;;;5019741;28;20035;-83
2022/07/15 02:11:38;;;;;;;7.38;3.28;;;15.80;99.90;;;;;;5037679;28;20036;-82
2022/07/15 02:14:04;;;;;;;4.88;2.28;;;15.80;99.90;;;;;;5019782;28;20525;-84
2022/07/15 02:16:30;;;;;;;4.95;2.00;;;15.70;99.90;;;;;;5037591;28;20128;-82
2022/07/15 02:18:57;;;;;;;5.65;2.30;;;15.70;99.90;;;;;;5037535;28;20040;-83
2022/07/15 02:21:23;;;;;;;7.65;2.95;;;15.70;99.90;;;;;;5019575;28;20025;-81
2022/07/15 02:23:49;;;;;;;5.72;2.85;;;15.70;99.90;;;;;;5037604;28;20052;-84
2022/07/15 02:26:15;;;;;;;5.07;2.40;;;15.70;99.90;;;;;;5037361;28;20032;-83
2022/07/15 02:28:42;;;;;;;3.70;1.90;;;15.70;99.90;;;;;;5037732;28;20344;-81
2022/07/15 02:31:08;;;;;;;5.22;2.15;;;15.70;99.90;;;;;;5019755;28;20225;-84
2022/07/15 02:33:33;;;;;;;5.10;2.60;;;15.60;99.90;;;;;;5037646;28;20415;-82
2022/07/15 02:35:59;;;;;;;5.00;2.50;;;15.60;99.90;;;;;;5037770;28;20401;-83
2022/07/15 02:38:25;;;;;;;4.07;2.05;;;15.60;99.90;;;;;;5038224;28;20440;-84
2022/07/15 02:40:51;;;;;;;4.82;2.75;;;15.50;99.90;;;;;;5020962;28;20028;-86
2022/07/15 02:43:17;;;;;;;5.57;2.47;;;15.50;99.90;;;;;;5037834;28;20013;-82
2022/07/15 02:45:58;;;;;;;4.78;2.35;;;15.50;99.90;;;;;;5025491;28;20096;-85
2022/07/15 02:48:24;;;;;;;6.32;2.28;;;15.50;99.90;;;;;;5059534;28;20173;-85
2022/07/15 02:50:50;;;;;;;3.63;1.88;;;;;;;;;;5041080;28;20037;-83
2022/07/15 02:53:18;;;;;;;3.95;2.25;;;17.10;99.90;;;;;;5062244;28;20094;-85
2022/07/15 02:55:44;;;;;;;3.63;2.00;;;15.50;99.90;;;;;;5044756;28;20246;-81
2022/07/15 02:58:09;;;;;;;6.68;2.55;;;14.60;99.90;;;;;;5045724;28;20047;-85
2022/07/15 03:00:35;;;;;;;5.50;2.40;;;15.40;99.90;;;;;;5056365;28;20033;-82
2022/07/15 03:03:01;;;;;;;5.72;2.75;;;;;;;;;;5025010;28;20491;-82
2022/07/15 03:05:27;;;;;;;5.88;2.53;;;15.30;99.90;;;;;;5044298;28;20569;-85
2022/07/15 03:07:53;;;;;;;4.70;2.40;;;15.20;99.90;;;;;;5043919;28;20100;-83
2022/07/15 03:10:19;;;;;;;5.15;2.10;;;15.20;99.90;;;;;;5043567;28;20562;-85
2022/07/15 03:12:44;;;;;;;5.50;2.58;;;15.20;99.90;;;;;;5044117;28;20029;-83
2022/07/15 03:15:13;;;;;;;6.25;2.50;;;15.10;99.90;;;;;;5043670;28;20236;-82
2022/07/15 03:17:42;;;;;;;5.53;2.60;;;15.00;99.90;;;;;;5042330;28;20132;-86
2022/07/15 03:20:09;;;;;;;3.50;1.98;;;15.00;99.90;;;;;;5042569;28;20028;-81
2022/07/15 03:22:35;;;;;;;4.53;2.42;;;15.00;99.90;;;;;;5042224;28;20017;-84
2022/07/15 03:25:02;;;;;;;5.40;2.53;;;15.00;99.90;;;;;;5041671;28;20376;-83
2022/07/15 03:27:27;;;;;;;3.70;1.90;;;15.00;99.90;;;;;;5023418;28;20036;-85
2022/07/15 03:29:53;;;;;;;4.18;2.03;;;15.00;99.90;;;;;;5041529;28;20032;-86
2022/07/15 03:32:20;;;;;;;6.85;2.72;;;15.10;99.90;;;;;;5042420;28;20538;-84
2022/07/15 03:34:46;;;;;;;6.38;2.38;;;15.10;99.90;;;;;;5042112;28;20021;-84
2022/07/15 03:37:12;;;;;;;5.88;2.45;;;15.00;99.90;;;;;;5041428;28;20113;-83
2022/07/15 03:39:38;;;;;;;6.40;2.53;;;15.10;99.90;;;;;;5041446;28;20077;-85
2022/07/15 03:42:04;;;;;;;4.80;1.95;;;15.10;99.90;;;;;;5022561;28;20025;-83
2022/07/15 03:44:30;;;;;;;3.95;2.33;;;15.10;99.90;;;;;;5040311;28;20028;-83
2022/07/15 03:46:56;;;;;;;5.93;2.67;;;;;;;;;;5021909;28;20544;-82
2022/07/15 03:49:22;;;;;;;6.80;2.65;;;15.20;99.90;;;;;;5040261;28;20067;-83
2022/07/15 03:51:47;;;;;;;6.07;2.72;;;15.20;99.90;;;;;;5040102;28;20053;-86
2022/07/15 03:54:13;;;;;;;4.82;2.15;;;15.20;99.90;;;;;;5021390;28;20499;-84
2022/07/15 03:56:40;;;;;;;6.18;2.47;;;15.10;99.90;;;;;;5021881;28;20036;-83
2022/07/15 03:59:06;;;;;;;5.32;2.63;;;15.20;99.90;;;;;;5040100;28;20025;-84
2022/07/15 04:01:33;;;;;;;5.13;2.42;;;15.20;99.90;;;;;;5040199;28;20060;-83
2022/07/15 04:03:59;;;;;;;6.43;2.50;;;15.20;99.90;;;;;;5020926;28;20333;-85
2022/07/15 04:06:25;;;;;;;7.90;3.17;;;15.20;99.90;;;;;;5021846;28;20032;-83
2022/07/15 04:08:51;;;;;;;8.48;3.10;;;15.20;99.90;;;;;;5039970;28;20305;-85
2022/07/15 04:11:17;;;;;;;10.52;5.38;;;15.20;99.90;;;;;;5021657;28;20033;-83
2022/07/15 04:13:44;;;;;;;8.30;4.10;;;15.30;99.90;;;;;;5040067;28;20534;-86
2022/07/15 04:16:13;;;;;;;7.47;3.33;;;15.30;99.90;;;;;;5021533;28;20029;-84
2022/07/15 04:18:39;;;;;;;7.07;3.38;;;15.30;99.90;;;;;;5039601;28;20391;-82
2022/07/15 04:21:05;;;;;;;6.90;3.08;;;15.40;99.90;;;;;;5039946;28;20453;-84
2022/07/15 04:23:31;;;;;;;7.63;2.97;;;15.40;99.90;;;;;;5021579;28;20491;-82
2022/07/15 04:25:57;;;;;;;7.00;3.10;;;15.50;99.90;;;;;;5039666;28;20487;-82
2022/07/15 04:28:24;;;;;;;6.28;3.10;;;14.60;99.90;;;;;;5021308;28;20607;-84
2022/07/15 04:30:53;;;;;;;6.32;3.00;;;15.60;99.90;;;;;;5021497;28;20025;-83
2022/07/15 04:33:23;;;;;;;5.53;2.58;;;15.80;99.90;;;;;;5021812;28;20079;-83
2022/07/15 04:35:49;;;;;;;6.47;3.35;;;15.80;99.90;;;;;;5021469;28;20142;-82
2022/07/15 04:38:14;;;;;;;6.57;3.03;;;15.90;99.90;;;;;;5039305;28;20100;-82
2022/07/15 04:40:40;;;;;;;7.25;3.05;;;15.90;99.90;;;;;;5021065;28;20037;-83
2022/07/15 04:43:06;;;;;;;6.30;3.15;;;16.00;99.90;;;;;;5039292;28;20032;-85
2022/07/15 04:45:34;;;;;;;6.57;2.80;;;16.10;99.80;;;;;;5021438;28;20228;-82
2022/07/15 04:47:59;;;;;;;7.32;2.92;;;16.20;99.80;;;;;;5021613;28;20554;-85
2022/07/15 04:50:46;;;;;;;4.47;2.17;;;16.30;99.40;;;;;;5039408;28;20029;-83
2022/07/15 04:53:12;;;;;;;6.25;2.95;;;16.30;99.40;;;;;;5039795;28;20040;-85
2022/07/15 04:55:38;;;;;;;6.20;3.20;;;;;;;;;;5039187;28;20028;-84
2022/07/15 04:58:04;;;;;;;6.60;2.92;;;16.40;98.80;;;;;;5020631;28;20056;-82
2022/07/15 05:00:30;;;;;;;6.70;3.42;;;16.50;99.20;;;;;;5038857;28;20120;-82
2022/07/15 05:02:56;;;;;;;12.32;5.78;;;16.60;98.90;;;;;;5038996;28;20523;-82
2022/07/15 05:05:22;;;;;;;14.77;6.43;;;16.60;99.00;;;;;;5021003;28;20636;-83
2022/07/15 05:07:47;;;;;;;23.25;7.85;;;16.70;98.90;;;;;;5038843;28;20084;-86
2022/07/15 05:10:13;;;;;;;19.33;8.13;;;16.80;98.90;;;;;;5020285;28;20519;-84
2022/07/15 05:12:40;;;;;;;21.77;10.10;;;;;;;;;;5039038;28;20029;-83
2022/07/15 05:15:06;;;;;;;14.00;6.53;;;17.00;98.40;;;;;;5038229;28;20032;-81
2022/07/15 05:17:34;;;;;;;13.32;6.82;;;17.00;98.30;;;;;;5020708;28;20053;-82
2022/07/15 05:20:00;;;;;;;13.63;7.55;;;17.10;98.20;;;;;;5020412;28;20049;-83
2022/07/15 05:22:26;;;;;;;10.30;6.10;;;17.30;98.10;;;;;;5038326;28;20091;-85
2022/07/15 05:24:52;;;;;;;8.10;3.38;;;17.40;98.00;;;;;;5038338;28;20511;-84
2022/07/15 05:27:17;;;;;;;7.22;3.25;;;17.40;98.00;;;;;;5020826;28;20508;-83
2022/07/15 05:29:49;;;;;;;8.82;4.05;;;17.50;98.00;;;;;;5038806;28;20025;-83
2022/07/15 05:32:15;;;;;;;22.70;10.23;;;17.60;97.90;;;;;;5020513;28;20053;-84
2022/07/15 05:34:41;;;;;;;16.55;8.32;;;17.60;97.70;;;;;;5020451;28;20091;-80
2022/07/15 05:37:07;;;;;;;11.77;6.60;;;17.60;98.20;;;;;;5038365;28;20545;-82
2022/07/15 05:39:34;;;;;;;10.40;5.72;;;17.70;97.80;;;;;;5038213;28;20225;-82
2022/07/15 05:42:00;;;;;;;11.55;4.53;;;17.90;97.40;;;;;;5037886;28;20221;-82
2022/07/15 05:44:26;;;;;;;10.88;4.68;;;18.00;97.20;;;;;;5038134;28;20013;-84
2022/07/15 05:46:51;;;;;;;10.43;4.45;;;18.00;97.10;;;;;;5038035;28;20029;-81
2022/07/15 05:49:17;;;;;;;9.88;4.15;;;18.20;96.90;;;;;;5019815;28;20029;-83
2022/07/15 05:51:44;;;;;;;7.30;3.58;;;18.30;97.00;;;;;;5038062;28;20017;-82
2022/07/15 05:54:14;;;;;;;5.95;3.20;;;18.30;96.70;;;;;;5019816;28;20150;-83
2022/07/15 05:56:43;;;;;;;6.70;3.92;;;18.50;96.50;;;;;;5019628;28;20073;-84
2022/07/15 05:59:09;;;;;;;5.68;3.13;;;18.60;96.50;;;;;;5037727;28;20044;-82
2022/07/15 06:01:35;;;;;;;6.72;3.35;;;18.70;96.20;;;;;;5037741;28;20063;-83
2022/07/15 06:04:03;;;;;;;10.25;3.55;;;18.80;96.20;;;;;;5037636;28;20021;-83
2022/07/15 06:06:29;;;;;;;7.40;3.45;;;18.80;95.80;;;;;;5019791;28;20032;-83
2022/07/15 06:08:55;;;;;;;5.90;3.45;;;18.90;95.50;;;;;;5037731;28;20025;-83
2022/07/15 06:11:36;;;;;;;7.03;3.60;;;19.00;95.40;;;;;;5037120;28;20013;-82
2022/07/15 06:14:06;;;;;;;9.10;4.40;;;19.10;95.40;;;;;;5037057;28;20076;-83
2022/07/15 06:16:32;;;;;;;11.00;4.95;;;19.30;95.00;;;;;;5036775;28;20135;-82
2022/07/15 06:18:59;;;;;;;13.35;6.00;;;19.40;94.80;;;;;;5019355;28;20567;-81
2022/07/15 06:21:24;;;;;;;10.02;4.85;;;19.60;94.60;;;;;;5037261;28;20472;-82
2022/07/15 06:23:50;;;;;;;7.57;3.50;;;19.70;94.40;;;;;;5037243;28;20183;-84
2022/07/15 06:26:16;;;;;;;8.20;3.47;;;19.80;94.00;;;;;;5018385;28;20049;-82
2022/07/15 06:28:42;;;;;;;7.13;3.30;;;20.00;93.70;;;;;;5036943;28;20648;-84
2022/07/15 06:31:07;;;;;;;7.05;3.78;;;20.10;93.30;;;;;;5019099;28;20056;-86
2022/07/15 06:33:33;;;;;;;7.88;3.97;;;20.20;92.90;;;;;;5036709;28;20108;-83
2022/07/15 06:35:59;;;;;;;8.10;3.42;;;20.20;92.80;;;;;;5019241;28;20059;-83
2022/07/15 06:38:27;;;;;;;7.82;3.72;;;20.30;92.80;;;;;;5037101;28;20037;-84
2022/07/15 06:40:56;;;;;;;8.05;3.88;;;20.30;92.60;;;;;;5036800;28;20012;-82
2022/07/15 06:43:22;;;;;;;6.63;3.30;;;20.50;92.90;;;;;;5037074;28;20091;-82
2022/07/15 06:45:48;;;;;;;7.07;3.60;;;20.60;92.40;;;;;;5036947;28;20186;-81
2022/07/15 06:48:14;;;;;;;9.05;3.55;;;20.80;92.30;;;;;;5036996;28;20025;-82
2022/07/15 06:50:40;;;;;;;9.38;4.22;;;20.90;92.50;;;;;;5036720;28;20027;-82
2022/07/15 06:53:06;;;;;;;7.57;4.22;;;21.10;92.00;;;;;;5037020;28;20548;-82
2022/07/15 06:55:31;;;;;;;12.20;3.80;;;21.20;91.90;;;;;;5036616;28;20052;-82
2022/07/15 06:57:57;;;;;;;8.50;3.85;;;21.40;91.50;;;;;;5018581;28;20040;-82
2022/07/15 07:00:23;;;;;;;8.90;3.78;;;21.50;91.10;;;;;;5036726;28;20153;-83
2022/07/15 07:02:49;;;;;;;6.70;3.13;;;21.70;91.00;;;;;;5036915;28;20033;-82
2022/07/15 07:05:15;;;;;;;9.00;3.38;;;21.80;90.50;;;;;;5036736;28;20028;-83
2022/07/15 07:07:41;;;;;;;6.10;3.40;;;21.70;90.40;;;;;;5036891;28;20503;-84
2022/07/15 07:10:07;;;;;;;9.20;3.55;;;22.00;90.30;;;;;;5036774;28;20025;-84
2022/07/15 07:12:33;;;;;;;6.68;3.60;;;22.20;90.10;;;;;;5036794;28;20259;-84
2022/07/15 07:15:01;;;;;;;10.10;3.67;;;22.40;89.20;;;;;;5018577;28;20509;-84
2022/07/15 07:17:27;;;;;;;8.48;3.13;;;22.40;88.30;;;;;;5036406;28;20462;-84
2022/07/15 07:19:53;;;;;;;6.60;3.15;;;22.60;88.60;;;;;;5018373;28;20286;-81
2022/07/15 07:22:19;;;;;;;7.28;3.47;;;22.60;87.90;;;;;;5036352;28;20036;-82
2022/07/15 07:24:45;;;;;;;6.85;3.45;;;22.60;89.50;;;;;;5036634;28;20025;-83
2022/07/15 07:27:11;;;;;;;5.82;3.33;;;22.80;87.50;;;;;;5018823;28;20419;-82
2022/07/15 07:29:37;;;;;;;7.53;4.00;;;22.80;86.90;;;;;;5036484;28;20025;-82
2022/07/15 07:32:03;;;;;;;8.15;3.60;;;22.80;87.10;;;;;;5018286;28;20180;-82
2022/07/15 07:34:29;;;;;;;7.70;3.00;;;22.90;86.20;;;;;;5036226;28;20534;-83
2022/07/15 07:36:55;;;;;;;7.47;3.20;;;23.10;85.50;;;;;;5036138;28;20132;-83
2022/07/15 07:39:21;;;;;;;8.25;3.40;;;23.30;85.20;;;;;;5038275;28;20100;-82
2022/07/15 07:41:47;;;;;;;6.75;3.00;;;23.50;83.80;;;;;;5040184;28;20399;-81
2022/07/15 07:44:13;;;;;;;6.10;3.00;;;23.50;82.90;;;;;;5022214;28;20052;-81
2022/07/15 07:46:39;;;;;;;9.15;3.75;;;23.80;83.20;;;;;;5040690;28;20025;-82
2022/07/15 07:49:05;;;;;;;8.07;3.40;;;24.00;81.60;;;;;;5022403;28;20081;-82
2022/07/15 07:51:33;;;;;;;8.45;3.47;;;24.10;82.00;;;;;;5022667;28;20025;-82
2022/07/15 07:54:06;;;;;;;6.43;3.67;;;24.30;81.50;;;;;;5021609;28;20239;-84
2022/07/15 07:56:31;;;;;;;9.35;3.80;;;24.40;79.80;;;;;;5039420;28;20332;-84
2022/07/15 07:59:00;;;;;;;7.80;2.80;;;24.30;79.60;;;;;;5039635;28;20021;-86
2022/07/15 08:01:29;;;;;;;10.73;3.30;;;24.50;79.70;;;;;;5039537;28;20148;-83
2022/07/15 08:03:55;;;;;;;6.10;3.03;;;23.10;78.60;;;;;;5039565;28;20391;-86
2022/07/15 08:06:22;;;;;;;6.20;3.08;;;24.90;78.40;;;;;;5039478;28;20618;-84
2022/07/15 08:08:48;;;;;;;7.70;3.33;;;24.90;77.70;;;;;;5039348;28;20017;-84
2022/07/15 08:11:14;;;;;;;6.45;3.08;;;25.10;77.00;;;;;;5039637;28;20044;-84
2022/07/15 08:13:42;;;;;;;6.40;3.22;;;25.30;77.30;;;;;;5040166;28;20341;-84
2022/07/15 08:16:08;;;;;;;9.77;2.97;;;25.40;75.10;;;;;;5021027;28;20474;-83
2022/07/15 08:18:34;;;;;;;7.00;3.35;;;25.60;74.80;;;;;;5021143;28;20263;-83
2022/07/15 08:21:00;;;;;;;7.90;3.03;;;25.80;74.20;;;;;;5039266;28;20103;-82
2022/07/15 08:23:25;;;;;;;9.52;3.13;;;26.10;72.70;;;;;;5037995;28;20479;-83
2022/07/15 08:25:52;;;;;;;6.43;2.97;;;26.30;72.80;;;;;;5021094;28;20021;-82
2022/07/15 08:28:18;;;;;;;8.98;3.28;;;26.40;71.80;;;;;;5039226;28;20029;-81
2022/07/15 08:30:44;;;;;;;7.75;3.10;;;26.40;72.00;;;;;;5038968;28;20529;-84
2022/07/15 08:33:14;;;;;;;7.47;3.35;;;26.50;71.00;;;;;;5020827;28;20620;-84
2022/07/15 08:35:41;;;;;;;5.93;2.65;;;26.70;70.20;;;;;;5038591;28;20218;-81
2022/07/15 08:38:09;;;;;;;12.75;3.08;;;26.50;69.50;;;;;;5039108;28;20213;-83
2022/07/15 08:40:35;;;;;;;8.95;2.90;;;26.60;69.20;;;;;;5038888;28;20111;-82
2022/07/15 08:43:02;;;;;;;9.07;2.80;;;26.80;68.60;;;;;;5038811;28;20029;-85
2022/07/15 08:45:28;;;;;;;8.00;2.97;;;26.80;69.10;;;;;;5038867;28;20013;-82
2022/07/15 08:47:57;;;;;;;9.75;3.15;;;26.80;69.00;;;;;;5020807;28;20024;-82
2022/07/15 08:50:22;;;;;;;6.65;3.10;;;27.00;68.90;;;;;;5020730;28;20017;-83
2022/07/15 08:52:48;;;;;;;6.07;2.92;;;27.20;68.70;;;;;;5020685;28;20339;-84
2022/07/15 08:55:18;;;;;;;8.95;2.80;;;27.40;67.30;;;;;;5020721;28;20051;-83
2022/07/15 08:57:46;;;;;;;4.78;2.85;;;27.50;67.00;;;;;;5020505;28;20589;-82
2022/07/15 09:00:13;;;;;;;6.45;2.95;;;27.70;67.10;;;;;;5038588;28;20033;-81
2022/07/15 09:02:39;;;;;;;6.10;2.72;;;27.80;66.30;;;;;;5038410;28;20052;-82
2022/07/15 09:05:28;;;;;;;6.32;2.70;;;27.90;65.50;;;;;;5019870;28;20057;-82
2022/07/15 09:08:20;;;;;;;10.80;3.30;;;27.90;65.80;;;;;;5038437;28;20032;-82
2022/07/15 09:10:51;;;;;;;7.50;2.92;;;28.00;66.50;;;;;;5035946;28;20083;-82
2022/07/15 09:13:38;;;;;;;6.53;3.10;;;28.20;66.30;;;;;;5020043;28;20530;-82
2022/07/15 09:16:09;;;;;;;8.82;2.88;;;28.20;66.10;;;;;;5038310;28;20036;-84
2022/07/15 09:18:43;;;;;;;5.82;2.70;;;26.30;64.70;;;;;;5038298;28;20368;-84
2022/07/15 09:21:16;;;;;;;5.80;2.80;;;28.40;66.20;;;;;;5038378;28;20017;-85
2022/07/15 09:23:42;;;;;;;5.70;2.60;;;28.50;64.40;;;;;;5020549;28;20021;-82
2022/07/15 09:26:32;;;;;;;6.05;2.70;;;28.60;65.10;;;;;;5038002;28;20317;-82
2022/07/15 09:28:59;;;;;;;6.15;3.00;;;28.80;63.70;;;;;;5038574;28;20221;-82
2022/07/15 09:34:35;;;;;;;5.22;2.33;;;29.00;63.30;;;;;;5038430;28;20750;-84
2022/07/15 09:37:04;;;;;;;7.53;2.60;;;29.10;64.00;;;;;;5020185;28;20033;-82
2022/07/15 09:39:30;;;;;;;9.40;3.10;;;29.30;64.40;;;;;;5019791;28;20032;-82
2022/07/15 09:42:06;;;;;;;5.82;2.80;;;29.50;63.30;;;;;;5019777;28;20025;-80
2022/07/15 09:44:33;;;;;;;5.97;2.53;;;29.60;61.10;;;;;;5037903;28;20083;-83
2022/07/15 09:47:01;;;;;;;5.07;2.40;;;29.60;61.50;;;;;;5019162;28;20269;-83
2022/07/15 09:49:27;;;;;;;7.32;2.92;;;29.70;61.40;;;;;;5019664;28;20017;-82
2022/07/15 09:51:56;;;;;;;7.43;3.30;;;29.90;61.00;;;;;;5037797;28;20124;-82
2022/07/15 09:54:34;;;;;;;5.72;2.75;;;30.00;61.30;;;;;;5037319;28;20021;-82
2022/07/15 09:57:05;;;;;;;6.78;2.63;;;30.00;59.80;;;;;;5037500;28;20158;-84
2022/07/15 09:59:39;;;;;;;7.25;2.88;;;30.10;60.30;;;;;;5037494;28;20204;-84
2022/07/15 10:02:04;;;;;;;11.40;3.17;;;30.00;59.90;;;;;;5017928;28;20194;-82
2022/07/15 10:04:31;;;;;;;5.80;2.83;;;29.70;59.40;;;;;;5037369;28;20395;-82
2022/07/15 10:07:07;;;;;;;5.68;2.75;;;30.30;59.90;;;;;;5037354;28;20021;-82
2022/07/15 10:09:35;;;;;;;6.00;2.85;;;30.30;59.90;;;;;;5037999;28;20013;-84
2022/07/15 10:12:08;;;;;;;5.88;2.80;;;30.50;60.00;;;;;;5019694;28;20483;-82
2022/07/15 10:15:24;;;;;;;6.68;3.45;;;30.60;59.90;;;;;;5037902;28;20028;-83
2022/07/15 10:17:59;;;;;;;6.55;3.00;;;30.70;59.20;;;;;;5036619;28;20581;-82
2022/07/15 10:20:45;;;;;;;7.35;2.80;;;30.90;59.50;;;;;;5019206;28;20017;-82
2022/07/15 10:23:29;;;;;;;8.93;3.05;;;30.90;59.80;;;;;;5019132;28;20530;-81
2022/07/15 10:26:20;;;;;;;7.63;3.30;;;31.10;59.70;;;;;;5036952;28;20028;-82
2022/07/15 10:28:52;;;;;;;9.07;3.63;;;31.30;59.40;;;;;;5019106;28;20411;-82
2022/07/15 10:31:25;;;;;;;10.80;3.10;;;31.50;59.40;;;;;;5037075;28;20056;-83
2022/07/15 10:34:03;;;;;;;8.38;3.30;;;30.50;58.40;;;;;;5018930;28;20305;-83
2022/07/15 10:36:47;;;;;;;10.93;3.92;;;31.80;59.10;;;;;;5019098;28;20040;-83
2022/07/15 10:39:14;;;;;;;5.85;2.78;;;31.70;58.40;;;;;;5036935;28;20084;-82
2022/07/15 10:42:02;;;;;;;9.15;3.75;;;31.40;58.40;;;;;;5037026;28;20585;-81
2022/07/15 10:44:37;;;;;;;11.80;3.45;;;31.70;58.50;;;;;;5036990;28;20088;-83
2022/07/15 10:47:14;;;;;;;7.80;2.65;;;31.80;57.50;;;;;;5018488;28;20025;-82
2022/07/15 10:49:42;;;;;;;6.88;3.05;;;31.90;58.20;;;;;;5037138;28;20040;-83
2022/07/15 10:52:20;;;;;;;8.50;2.83;;;32.00;56.30;;;;;;5036750;28;20372;-82
2022/07/15 10:54:47;;;;;;;6.70;2.45;;;32.30;55.60;;;;;;5036818;28;20025;-82
2022/07/15 10:57:15;;;;;;;5.63;2.30;;;32.20;53.30;;;;;;5018387;28;20534;-83
2022/07/15 10:59:56;;;;;;;4.60;2.22;;;32.20;52.10;;;;;;5036661;28;20010;-84
2022/07/15 11:02:30;;;;;;;7.25;2.28;;;32.40;52.10;;;;;;5036749;28;20104;-83
2022/07/15 11:05:17;;;;;;;6.03;2.20;;;32.50;51.20;;;;;;5018228;28;20056;-82
2022/07/15 11:07:43;;;;;;;5.18;2.20;;;32.40;51.70;;;;;;5036517;28;20079;-83
2022/07/15 11:10:14;;;;;;;5.25;2.10;;;32.40;52.00;;;;;;5036436;28;20130;-83
2022/07/15 11:12:49;;;;;;;7.07;2.20;;;32.60;50.60;;;;;;5019199;28;20818;-82
2022/07/15 11:15:21;;;;;;;6.22;2.10;;;32.60;52.60;;;;;;5022119;28;20040;-84
2022/07/15 11:17:53;;;;;;;6.00;2.50;;;32.70;52.70;;;;;;5021829;28;20049;-84
2022/07/15 11:20:33;;;;;;;5.93;2.60;;;32.90;51.30;;;;;;5040709;28;20052;-83
2022/07/15 11:23:01;;;;;;;7.63;2.92;;;33.00;51.70;;;;;;5040355;28;20029;-83
2022/07/15 11:25:53;;;;;;;5.43;2.20;;;34.00;52.30;;;;;;5040519;28;20324;-82
2022/07/15 11:28:21;;;;;;;6.93;2.40;;;33.00;51.60;;;;;;5020774;28;20745;-83
2022/07/15 11:30:53;;;;;;;4.82;2.42;;;32.70;52.50;;;;;;5040453;28;20031;-84
2022/07/15 11:33:25;;;;;;;4.00;2.20;;;32.70;51.80;;;;;;5040277;28;20104;-84
2022/07/15 11:36:02;;;;;;;6.35;2.67;;;33.00;50.70;;;;;;5040239;28;20034;-83
2022/07/15 11:38:37;;;;;;;4.75;1.98;;;33.50;49.90;;;;;;5021889;28;20527;-82
2022/07/15 11:46:45;;;;;;;6.75;2.20;;;34.30;48.40;;;;;;5040658;28;20079;-84
2022/07/15 11:49:11;;;;;;;3.78;1.70;;;34.90;46.90;;;;;;5039917;28;20079;-81
2022/07/15 11:51:37;;;;;;;4.32;1.70;;;35.20;45.00;;;;;;5039790;28;20017;-81
2022/07/15 11:54:03;;;;;;;4.55;1.42;;;35.30;44.60;;;;;;5039694;28;20024;-81
2022/07/15 11:56:28;;;;;;;3.30;1.40;;;35.50;44.30;;;;;;5039501;28;20590;-82
2022/07/15 11:58:56;;;;;;;3.53;1.60;;;35.60;44.60;;;;;;5039643;28;20464;-82
2022/07/15 12:01:28;;;;;;;2.75;1.40;;;35.90;43.10;;;;;;5021594;28;20139;-82
2022/07/15 12:03:57;;;;;;;4.30;1.73;;;36.30;42.60;;;;;;5039744;28;20216;-82
2022/07/15 12:06:32;;;;;;;2.83;1.33;;;36.90;42.50;;;;;;5039322;28;20344;-81
2022/07/15 12:09:08;;;;;;;3.95;1.90;;;37.40;41.70;;;;;;5039474;28;20025;-82
2022/07/15 12:11:38;;;;;;;2.67;1.70;;;37.50;41.80;;;;;;5039467;28;20210;-82
2022/07/15 12:14:13;;;;;;;4.00;1.50;;;37.50;40.70;;;;;;5039564;28;20087;-81
2022/07/15 12:16:52;;;;;;;3.33;1.55;;;37.30;40.80;;;;;;5039028;28;20017;-82
2022/07/15 12:19:20;;;;;;;3.63;1.45;;;37.30;40.90;;;;;;5039579;28;20025;-82
2022/07/15 12:21:48;;;;;;;1.95;1.25;;;37.30;41.00;;;;;;5039236;28;20021;-81
2022/07/15 12:24:21;;;;;;;2.40;1.20;;;37.60;40.60;;;;;;5038822;28;20491;-82
2022/07/15 12:26:50;;;;;;;2.38;1.40;;;37.40;40.50;;;;;;5039189;28;20025;-82
2022/07/15 12:29:21;;;;;;;2.45;1.30;;;37.60;39.80;;;;;;5039471;28;20017;-83
2022/07/15 12:31:58;;;;;;;3.17;1.30;;;38.10;39.40;;;;;;5039343;28;20028;-81
2022/07/15 12:34:46;;;;;;;3.60;1.30;;;38.00;39.60;;;;;;5039104;28;20400;-81
2022/07/15 12:37:16;;;;;;;4.40;1.52;;;38.30;38.00;;;;;;5039140;28;20318;-81
2022/07/15 12:39:55;;;;;;;6.18;1.70;;;37.90;37.80;;;;;;5021077;28;20044;-82
2022/07/15 12:42:21;;;;;;;4.50;1.45;;;37.80;39.80;;;;;;5038658;28;20044;-81
2022/07/15 12:45:11;;;;;;;3.50;1.60;;;38.00;39.90;;;;;;5020942;28;20056;-83
2022/07/15 12:47:55;;;;;;;4.18;1.75;;;38.30;39.80;;;;;;5038764;28;20021;-81
2022/07/15 12:50:24;;;;;;;2.88;1.40;;;38.40;39.80;;;;;;5038917;28;20218;-83
2022/07/15 12:52:52;;;;;;;3.83;1.55;;;38.70;39.40;;;;;;5038891;28;20045;-82
2022/07/15 12:55:19;;;;;;;5.85;1.70;;;39.10;39.10;;;;;;5038650;28;20021;-82
2022/07/15 12:57:46;;;;;;;4.15;1.70;;;38.90;38.80;;;;;;5038494;28;20224;-83
2022/07/15 13:00:15;;;;;;;3.03;1.73;;;38.80;38.90;;;;;;5038521;28;20021;-81
2022/07/15 13:03:03;;;;;;;2.47;1.48;;;39.00;39.20;;;;;;5038344;28;20021;-82
2022/07/15 13:05:39;;;;;;;3.05;1.65;;;39.00;39.30;;;;;;5020426;28;20296;-81